Decker, Michigan
Current Conditions -  °F | °C
As of 12:54 PM on Saturday 20 Dec 2014 (Local Time) from KCFS Reporting Station
Broken Clouds Broken Clouds  
Wind Chill: 31°   Ceiling: 2100
Heat Index: 31°   Visibility: 10mi
Dew Point: 22°   Wind: 3mph
Humidity: 67%   Direction: 300°WNW
Pressure: 30.27"   Gusts: NA
Location:  43.46°N, 83.05°W
Report Text: KCFS 201754Z AUTO 30003KT 10SM BKN021 00/M06 A3027 RMK AO2 T10041058
Loading
Personal Weather Stations






























Interactive Weather Map New forecast layout! Learn more

10-Day Weather Forecast

Advertisements
Track Severe Weather on mobile